< < Back
Terminal Aerodrome Forecast


Current Version              Previous Versions:   1  2  3  4  5  6  7  8  9  

Terminal Aerodrome Forecast

256
FTUS42 KMLB 291500 AAA
TAFMCO
TAF AMD
KMCO 291508Z 2915/3012 02005KT P6SM FEW050 SCT250
     FM291700 09007KT P6SM SCT050 SCT250
     FM300100 VRB03KT P6SM SCT250=

Latest METAR

765
SAUS70 KWBC 300500 RRB
MTRMCO
METAR KMCO 300453Z 27005KT 10SM CLR 12/10 A3024 RMK AO2 SLP239 T01220100
402220067


USA.gov is the U.S. government's official web portal to all federal, state and local government web resources and services.